Time;durP1;ratioP1;P1;durP2;ratioP2;P2;SDS_P1;SDS_P2;PMS_P1;PMS_P2;Temp;Humidity;BMP_temperature;BMP_pressure;BME280_temperature;BME280_humidity;BME280_pressure;Samples;Min_cycle;Max_cycle;Signal;HPM_P1;HPM_P2
2023/01/10 00:00:04;;;;;;;;;;;;;;;6.62;100.00;97348.75;5099787;28;19983;-79
2023/01/10 00:02:30;;;;;;;;;;;;;;;6.50;100.00;97362.16;5102244;28;19945;-79
2023/01/10 00:04:57;;;;;;;;;;;;;;;6.52;100.00;97356.63;5102460;28;19935;-81
2023/01/10 00:07:23;;;;;;;;;;;;;;;6.53;100.00;97368.03;5099310;28;19924;-80
2023/01/10 00:09:50;;;;;;;;;;;;;;;6.61;100.00;97372.88;5098702;28;19924;-79
2023/01/10 00:15:01;;;;;;;;;;;;;;;6.57;100.00;97379.72;5120333;28;19991;-80
2023/01/10 00:17:28;;;;;;;;;;;;;;;6.66;100.00;97388.84;5098682;28;19924;-79
2023/01/10 00:19:54;;;;;;;;;;;;;;;6.53;100.00;97391.91;5116762;28;19962;-78
2023/01/10 00:22:23;;;;;;;;;;;;;;;6.62;100.00;97406.31;5101582;28;19923;-79
2023/01/10 00:24:50;;;;;;;;;;;;;;;6.62;100.00;97401.81;5113316;28;19925;-81
2023/01/10 00:27:20;;;;;;;;;;;;;;;6.49;100.00;97400.38;5116401;28;19951;-80
2023/01/10 00:29:46;;;;;;;;;;;;;;;6.51;100.00;97408.06;5116601;28;19924;-78
2023/01/10 00:32:14;;;;;;;;;;;;;;;6.37;100.00;97405.00;5101392;28;19948;-79
2023/01/10 00:34:41;;;;;;;;;;;;;;;6.46;100.00;97410.66;5122477;28;19931;-79
2023/01/10 00:37:07;;;;;;;;;;;;;;;6.37;100.00;97415.63;5101072;28;19945;-79
2023/01/10 00:39:37;;;;;;;;;;;;;;;6.47;100.00;97422.84;5117005;28;19924;-80
2023/01/10 00:45:02;;;;;;;;;;;;;;;6.40;100.00;97425.72;5136116;27;19920;-79
2023/01/10 00:47:29;;;;;;;;;;;;;;;6.24;100.00;97431.88;5114525;28;19959;-77
2023/01/10 00:49:56;;;;;;;;;;;;;;;6.31;100.00;97431.72;5120810;28;19924;-79
2023/01/10 00:52:22;;;;;;;;;;;;;;;6.32;100.00;97451.84;5105869;28;19928;-79
2023/01/10 00:54:49;;;;;;;;;;;;;;;6.39;100.00;97458.59;5112202;28;19949;-79
2023/01/10 00:57:15;;;;;;;;;;;;;;;6.25;100.00;97461.88;5118876;28;19927;-79
2023/01/10 00:59:41;;;;;;;;;;;;;;;6.31;100.00;97466.97;5099339;28;19990;-79
2023/01/10 01:02:08;;;;;;;;;;;;;;;6.37;100.00;97471.31;5099831;28;19920;-79
2023/01/10 01:04:35;;;;;;;;;;;;;;;6.42;100.00;97465.25;5101747;28;20720;-77
2023/01/10 01:07:02;;;;;;;;;;;;;;;6.40;100.00;97470.81;5101152;28;19930;-78
2023/01/10 01:09:28;;;;;;;;;;;;;;;6.40;100.00;97480.63;5098190;28;20405;-78
2023/01/10 01:11:55;;;;;;;;;;;;;;;6.44;100.00;97492.31;5115875;28;19963;-78
2023/01/10 01:14:21;;;;;;;;;;;;;;;6.39;100.00;97497.56;5100987;28;19923;-78
2023/01/10 01:16:48;;;;;;;;;;;;;;;6.38;100.00;97496.75;5119452;28;19924;-78
2023/01/10 01:19:14;;;;;;;;;;;;;;;6.29;100.00;97502.72;5099634;28;19960;-78
2023/01/10 01:21:42;;;;;;;;;;;;;;;6.22;100.00;97500.25;5099331;28;19924;-78
2023/01/10 01:24:09;;;;;;;;;;;;;;;6.29;100.00;97514.16;5097609;28;20027;-78
2023/01/10 01:26:36;;;;;;;;;;;;;;;6.42;100.00;97519.09;5089440;28;19970;-79
2023/01/10 01:29:02;;;;;;;;;;;;;;;6.48;100.00;97522.63;5115962;28;19920;-78
2023/01/10 01:31:29;;;;;;;;;;;;;;;6.37;100.00;97521.69;5118657;28;19923;-78
2023/01/10 01:33:55;;;;;;;;;;;;;;;6.37;100.00;97534.97;5100841;28;19959;-78
2023/01/10 01:36:21;;;;;;;;;;;;;;;6.42;100.00;97528.91;5097496;28;19924;-78
2023/01/10 01:38:49;;;;;;;;;;;;;;;6.42;100.00;97532.38;5097142;28;19924;-78
2023/01/10 01:44:00;;;;;;;;;;;;;;;6.42;100.00;97542.16;5090175;28;19930;-78
2023/01/10 01:46:27;;;;;;;;;;;;;;;6.40;100.00;97538.97;5106791;28;19924;-78
2023/01/10 01:48:54;;;;;;;;;;;;;;;6.41;100.00;97541.34;5088636;28;19967;-78
2023/01/10 01:51:24;;;;;;;;;;;;;;;6.45;100.00;97545.13;5106679;28;19980;-77
2023/01/10 01:53:54;;;;;;;;;;;;;;;6.48;100.00;97547.28;5110113;28;20005;-77
2023/01/10 01:56:23;;;;;;;;;;;;;;;6.53;100.00;97548.41;5101266;28;19923;-77
2023/01/10 01:58:51;;;;;;;;;;;;;;;6.50;100.00;97539.88;5100790;28;19932;-78
2023/01/10 02:01:18;;;;;;;;;;;;;;;6.51;100.00;97559.25;5120198;28;19923;-77
2023/01/10 02:03:47;;;;;;;;;;;;;;;6.60;100.00;97555.13;5100899;28;19956;-77
2023/01/10 02:06:15;;;;;;;;;;;;;;;6.49;100.00;97559.53;5122102;28;19924;-78
2023/01/10 02:08:45;;;;;;;;;;;;;;;6.55;100.00;97573.66;5104657;28;20445;-78
2023/01/10 02:11:13;;;;;;;;;;;;;;;6.46;100.00;97567.97;5102656;28;19965;-77
2023/01/10 02:13:41;;;;;;;;;;;;;;;6.51;100.00;97575.97;5119145;28;19970;-78
2023/01/10 02:16:07;;;;;;;;;;;;;;;6.53;100.00;97584.50;5119760;28;19927;-78
2023/01/10 02:18:34;;;;;;;;;;;;;;;6.58;100.00;97581.13;5138140;27;20338;-78
2023/01/10 02:21:11;;;;;;;;;;;;;;;6.59;100.00;97579.28;5122038;28;19931;-78
2023/01/10 02:23:50;;;;;;;;;;;;;;;6.66;100.00;97582.53;5100346;28;19920;-78
2023/01/10 02:26:38;;;;;;;;;;;;;;;6.53;100.00;97580.25;5094415;28;19924;-78
2023/01/10 02:29:19;;;;;;;;;;;;;;;6.63;100.00;97591.78;5103042;28;19962;-78
2023/01/10 02:32:06;;;;;;;;;;;;;;;6.55;100.00;97594.88;5115922;28;20448;-77
2023/01/10 02:34:39;;;;;;;;;;;;;;;6.53;100.00;97593.50;5107935;28;20166;-78
2023/01/10 02:37:09;;;;;;;;;;;;;;;6.53;100.00;97595.09;5109606;28;19924;-78
2023/01/10 02:39:39;;;;;;;;;;;;;;;6.55;100.00;97599.38;5110055;28;19951;-78
2023/01/10 02:42:07;;;;;;;;;;;;;;;6.49;100.00;97599.31;5100377;28;19924;-78
2023/01/10 02:44:36;;;;;;;;;;;;;;;6.51;100.00;97604.34;5114909;28;19947;-78
2023/01/10 02:47:02;;;;;;;;;;;;;;;6.53;100.00;97613.66;5103190;28;19983;-78
2023/01/10 02:49:29;;;;;;;;;;;;;;;6.45;100.00;97610.63;5099853;28;19924;-78
2023/01/10 02:51:57;;;;;;;;;;;;;;;6.51;100.00;97615.78;5100355;28;19928;-78
2023/01/10 02:54:25;;;;;;;;;;;;;;;6.53;100.00;97622.69;5128526;27;20372;-78
2023/01/10 02:57:01;;;;;;;;;;;;;;;6.44;100.00;97622.28;5103564;28;19923;-78
2023/01/10 02:59:36;;;;;;;;;;;;;;;6.43;100.00;97634.75;5118619;28;19970;-78
2023/01/10 03:02:06;;;;;;;;;;;;;;;6.47;100.00;97635.88;5119146;28;19963;-78
2023/01/10 03:04:37;;;;;;;;;;;;;;;6.41;100.00;97639.50;5104202;28;19924;-77
2023/01/10 03:07:10;;;;;;;;;;;;;;;6.34;100.00;97641.53;5103544;28;19945;-78
2023/01/10 03:09:42;;;;;;;;;;;;;;;6.38;100.00;97647.94;5100583;28;19960;-77
2023/01/10 03:12:12;;;;;;;;;;;;;;;6.40;100.00;97639.75;5101018;28;19983;-78
2023/01/10 03:14:39;;;;;;;;;;;;;;;6.42;100.00;97643.75;5103777;28;20038;-77
2023/01/10 03:17:07;;;;;;;;;;;;;;;6.26;100.00;97641.91;5120966;28;19955;-77
2023/01/10 03:19:35;;;;;;;;;;;;;;;6.40;100.00;97656.47;5100087;28;20080;-78
2023/01/10 03:22:03;;;;;;;;;;;;;;;6.37;100.00;97656.97;5118705;28;19935;-77
2023/01/10 03:24:33;;;;;;;;;;;;;;;6.36;100.00;97650.03;5098449;28;19924;-77
2023/01/10 03:27:03;;;;;;;;;;;;;;;6.38;100.00;97655.88;5133515;27;19924;-77
2023/01/10 03:29:34;;;;;;;;;;;;;;;6.35;100.00;97672.28;5099242;28;19991;-77
2023/01/10 03:32:04;;;;;;;;;;;;;;;6.40;100.00;97676.88;5099473;28;19934;-78
2023/01/10 03:34:31;;;;;;;;;;;;;;;6.26;100.00;97676.38;5102755;28;20509;-78
2023/01/10 03:37:02;;;;;;;;;;;;;;;6.40;100.00;97688.31;5102712;28;19928;-78
2023/01/10 03:39:34;;;;;;;;;;;;;;;6.42;100.00;97704.75;5116445;28;19931;-78
2023/01/10 03:42:05;;;;;;;;;;;;;;;6.53;100.00;97710.25;5101118;28;19947;-78
2023/01/10 03:44:44;;;;;;;;;;;;;;;6.49;100.00;97710.72;5122489;28;19927;-78
2023/01/10 03:47:13;;;;;;;;;;;;;;;6.42;100.00;97711.91;5119456;28;19987;-78
2023/01/10 03:49:41;;;;;;;;;;;;;;;6.44;100.00;97710.63;5098737;28;19920;-78
2023/01/10 03:52:10;;;;;;;;;;;;;;;6.45;100.00;97722.84;5117969;28;19935;-78
2023/01/10 03:54:38;;;;;;;;;;;;;;;6.46;100.00;97721.00;5108417;28;19959;-78
2023/01/10 03:57:06;;;;;;;;;;;;;;;6.45;100.00;97732.66;5102628;28;19935;-78
2023/01/10 03:59:33;;;;;;;;;;;;;;;6.49;100.00;97729.28;5117540;28;20499;-78
2023/01/10 04:01:59;;;;;;;;;;;;;;;6.46;100.00;97735.06;5117150;28;19956;-78
2023/01/10 04:04:26;;;;;;;;;;;;;;;6.53;100.00;97750.03;5120535;28;19920;-78
2023/01/10 04:06:52;;;;;;;;;;;;;;;6.45;100.00;97748.56;5102431;28;20496;-78
2023/01/10 04:09:18;;;;;;;;;;;;;;;6.47;100.00;97759.72;5117459;28;19958;-78
2023/01/10 04:11:46;;;;;;;;;;;;;;;6.50;100.00;97751.28;5098183;28;19935;-78
2023/01/10 04:14:12;;;;;;;;;;;;;;;6.53;100.00;97756.13;5100371;28;19924;-78
2023/01/10 04:16:39;;;;;;;;;;;;;;;6.54;100.00;97757.75;5119928;28;20007;-78
2023/01/10 04:19:05;;;;;;;;;;;;;;;6.55;100.00;97755.91;5101583;28;19919;-78
2023/01/10 04:21:32;;;;;;;;;;;;;;;6.46;100.00;97764.25;5099166;28;19924;-78
2023/01/10 04:23:58;;;;;;;;;;;;;;;6.45;100.00;97770.59;5100252;28;19920;-78
2023/01/10 04:26:25;;;;;;;;;;;;;;;6.53;100.00;97773.91;5101364;28;19927;-78
2023/01/10 04:28:52;;;;;;;;;;;;;;;6.53;100.00;97776.56;5102187;28;20385;-78
2023/01/10 04:31:19;;;;;;;;;;;;;;;6.42;100.00;97780.88;5120611;28;19950;-78
2023/01/10 04:33:45;;;;;;;;;;;;;;;6.44;100.00;97787.56;5101995;28;20162;-78
2023/01/10 04:36:12;;;;;;;;;;;;;;;6.33;100.00;97791.09;5118256;28;19941;-78
2023/01/10 04:38:38;;;;;;;;;;;;;;;6.41;100.00;97795.19;5117211;28;19958;-78
2023/01/10 04:41:05;;;;;;;;;;;;;;;6.42;100.00;97799.44;5118695;28;19966;-78
2023/01/10 04:43:31;;;;;;;;;;;;;;;6.37;100.00;97802.03;5120610;28;19955;-78
2023/01/10 04:45:59;;;;;;;;;;;;;;;6.31;100.00;97806.41;5102491;28;19920;-78
2023/01/10 04:48:26;;;;;;;;;;;;;;;6.24;100.00;97808.41;5108003;28;19927;-78
2023/01/10 04:50:53;;;;;;;;;;;;;;;6.35;100.00;97812.84;5108077;28;19975;-78
2023/01/10 04:53:19;;;;;;;;;;;;;;;6.35;100.00;97818.16;5098013;28;19930;-78
2023/01/10 04:55:46;;;;;;;;;;;;;;;6.41;100.00;97827.00;5122649;27;19924;-78
2023/01/10 04:58:13;;;;;;;;;;;;;;;6.39;100.00;97829.91;5117527;28;20016;-78
2023/01/10 05:00:39;;;;;;;;;;;;;;;6.46;100.00;97841.19;5100967;28;19931;-78
2023/01/10 05:03:07;;;;;;;;;;;;;;;6.47;100.00;97845.44;5100198;28;19984;-78
2023/01/10 05:05:33;;;;;;;;;;;;;;;6.48;100.00;97841.75;5115793;28;19924;-78
2023/01/10 05:08:00;;;;;;;;;;;;;;;6.53;100.00;97852.44;5097321;28;19935;-78
2023/01/10 05:10:26;;;;;;;;;;;;;;;6.47;100.00;97852.56;5100996;28;19952;-78
2023/01/10 05:12:53;;;;;;;;;;;;;;;6.53;100.00;97848.19;5101365;28;19924;-79
2023/01/10 05:15:20;;;;;;;;;;;;;;;6.50;100.00;97852.09;5100494;28;20491;-78
2023/01/10 05:17:46;;;;;;;;;;;;;;;6.56;100.00;97853.03;5116827;28;20014;-78
2023/01/10 05:20:14;;;;;;;;;;;;;;;6.58;100.00;97866.84;5117937;28;19969;-79
2023/01/10 05:22:40;;;;;;;;;;;;;;;6.55;100.00;97872.63;5101329;28;19926;-79
2023/01/10 05:25:07;;;;;;;;;;;;;;;6.49;100.00;97877.03;5091818;28;20356;-79
2023/01/10 05:27:33;;;;;;;;;;;;;;;6.51;100.00;97885.56;5115522;28;19924;-79
2023/01/10 05:29:59;;;;;;;;;;;;;;;6.53;100.00;97889.56;5097036;28;20023;-79
2023/01/10 05:32:28;;;;;;;;;;;;;;;6.50;100.00;97903.31;5130985;27;19924;-78
2023/01/10 05:34:54;;;;;;;;;;;;;;;6.47;100.00;97902.97;5114815;28;19924;-79
2023/01/10 05:37:22;;;;;;;;;;;;;;;6.55;100.00;97899.16;5118252;28;20485;-79
2023/01/10 05:39:48;;;;;;;;;;;;;;;6.53;100.00;97906.56;5100125;28;19923;-79
2023/01/10 05:42:15;;;;;;;;;;;;;;;6.41;100.00;97910.03;5098093;28;20487;-79
2023/01/10 05:44:41;;;;;;;;;;;;;;;6.51;100.00;97912.09;5114876;28;19924;-79
2023/01/10 05:47:07;;;;;;;;;;;;;;;6.50;100.00;97915.78;5098270;28;19987;-79
2023/01/10 05:49:34;;;;;;;;;;;;;;;6.46;100.00;97925.25;5100533;28;19924;-78
2023/01/10 05:52:00;;;;;;;;;;;;;;;6.43;100.00;97925.75;5134586;28;19923;-78
2023/01/10 05:54:29;;;;;;;;;;;;;;;6.45;100.00;97927.09;5122247;28;19935;-78
2023/01/10 05:56:56;;;;;;;;;;;;;;;6.44;100.00;97928.13;5100432;28;19935;-78
2023/01/10 05:59:22;;;;;;;;;;;;;;;6.45;100.00;97939.56;5098786;28;19997;-78
2023/01/10 06:01:49;;;;;;;;;;;;;;;6.44;100.00;97944.06;5119614;28;19956;-78
2023/01/10 06:04:15;;;;;;;;;;;;;;;6.46;100.00;97947.31;5101416;28;20188;-78
2023/01/10 06:06:42;;;;;;;;;;;;;;;6.45;100.00;97960.78;5100663;28;19924;-79
2023/01/10 06:09:08;;;;;;;;;;;;;;;6.44;100.00;97962.63;5117258;28;19923;-78
2023/01/10 06:11:37;;;;;;;;;;;;;;;6.56;100.00;97967.09;5096764;28;19956;-78
2023/01/10 06:14:04;;;;;;;;;;;;;;;6.55;100.00;97976.09;5097384;28;19929;-78
2023/01/10 06:16:30;;;;;;;;;;;;;;;6.39;100.00;97989.06;5099573;28;19923;-78
2023/01/10 06:18:57;;;;;;;;;;;;;;;6.47;100.00;97993.19;5099989;28;20081;-78
2023/01/10 06:21:23;;;;;;;;;;;;;;;6.57;100.00;97998.69;5097029;28;19968;-78
2023/01/10 06:23:49;;;;;;;;;;;;;;;6.56;100.00;98001.59;5114944;28;19928;-79
2023/01/10 06:26:17;;;;;;;;;;;;;;;6.42;100.00;98007.16;5092157;28;19924;-79
2023/01/10 06:28:45;;;;;;;;;;;;;;;6.53;100.00;98015.34;5103566;28;19974;-78
2023/01/10 06:31:13;;;;;;;;;;;;;;;6.63;100.00;98010.22;5101290;28;19946;-79
2023/01/10 06:33:40;;;;;;;;;;;;;;;6.43;100.00;98021.22;5114549;28;19930;-77
2023/01/10 06:36:07;;;;;;;;;;;;;;;6.58;100.00;98023.38;5097260;28;19950;-76
2023/01/10 06:38:33;;;;;;;;;;;;;;;6.60;100.00;98029.25;5100302;28;19965;-77
2023/01/10 06:41:11;;;;;;;;;;;;;;;6.67;100.00;98032.59;5120701;28;19951;-78
2023/01/10 06:43:38;;;;;;;;;;;;;;;6.62;100.00;98040.47;5098978;28;20488;-79
2023/01/10 06:46:08;;;;;;;;;;;;;;;6.42;100.00;98046.94;5117666;28;19931;-78
2023/01/10 06:48:34;;;;;;;;;;;;;;;6.38;100.00;98056.41;5107076;28;19919;-78
2023/01/10 06:51:01;;;;;;;;;;;;;;;6.49;100.00;98058.25;5124512;28;19970;-78
2023/01/10 06:53:27;;;;;;;;;;;;;;;6.51;100.00;98071.28;5119828;28;19943;-78
2023/01/10 06:55:54;;;;;;;;;;;;;;;6.57;100.00;98086.25;5125334;27;19970;-78
2023/01/10 06:58:20;;;;;;;;;;;;;;;6.59;100.00;98084.19;5121064;28;19928;-78
2023/01/10 07:00:46;;;;;;;;;;;;;;;6.53;100.00;98091.22;5121812;28;19935;-79
2023/01/10 07:03:14;;;;;;;;;;;;;;;6.55;100.00;98098.16;5119738;28;19946;-79
2023/01/10 07:05:41;;;;;;;;;;;;;;;6.46;100.00;98100.34;5118226;28;19924;-78
2023/01/10 07:08:07;;;;;;;;;;;;;;;6.52;100.00;98102.06;5119253;28;20368;-78
2023/01/10 07:10:34;;;;;;;;;;;;;;;6.57;100.00;98104.84;5103355;28;19974;-79
2023/01/10 07:13:00;;;;;;;;;;;;;;;6.50;100.00;98112.91;5103425;28;19951;-79
2023/01/10 07:15:27;;;;;;;;;;;;;;;6.44;100.00;98124.44;5099502;28;19928;-78
2023/01/10 07:17:56;;;;;;;;;;;;;;;6.44;100.00;98127.09;5099560;28;19956;-79
2023/01/10 07:20:23;;;;;;;;;;;;;;;6.55;100.00;98135.28;5102761;28;19969;-78
2023/01/10 07:22:53;;;;;;;;;;;;;;;6.65;100.00;98148.78;5103678;28;20321;-78
2023/01/10 07:25:19;;;;;;;;;;;;;;;6.58;100.00;98150.75;5091449;28;19924;-79
2023/01/10 07:27:45;;;;;;;;;;;;;;;6.60;100.00;98164.59;5099240;28;19980;-79
2023/01/10 07:30:12;;;;;;;;;;;;;;;6.49;100.00;98167.03;5118657;28;19960;-79
2023/01/10 07:32:38;;;;;;;;;;;;;;;6.43;100.00;98165.28;5102972;28;19955;-79
2023/01/10 07:35:05;;;;;;;;;;;;;;;6.49;100.00;98175.00;5120208;28;20368;-78
2023/01/10 07:37:33;;;;;;;;;;;;;;;6.40;100.00;98173.72;5117670;28;19967;-79
2023/01/10 07:39:59;;;;;;;;;;;;;;;6.40;100.00;98181.66;5098882;28;19960;-78
2023/01/10 07:42:25;;;;;;;;;;;;;;;6.35;100.00;98184.19;5108723;28;19920;-77
2023/01/10 07:44:52;;;;;;;;;;;;;;;6.40;100.00;98186.97;5109530;28;19951;-77
2023/01/10 07:47:18;;;;;;;;;;;;;;;6.41;100.00;98193.88;5099613;28;19960;-77
2023/01/10 07:49:44;;;;;;;;;;;;;;;6.41;100.00;98198.38;5093904;28;19924;-77
2023/01/10 07:52:10;;;;;;;;;;;;;;;6.51;100.00;98209.22;5108617;28;19992;-77
2023/01/10 07:54:38;;;;;;;;;;;;;;;6.45;100.00;98208.31;5119952;27;19934;-76
2023/01/10 07:57:04;;;;;;;;;;;;;;;6.53;100.00;98221.22;5100959;28;19919;-77
2023/01/10 07:59:31;;;;;;;;;;;;;;;6.56;100.00;98222.59;5098593;28;19991;-77
2023/01/10 08:01:57;;;;;;;;;;;;;;;6.55;100.00;98228.16;5116920;28;19951;-77
2023/01/10 08:04:23;;;;;;;;;;;;;;;6.46;100.00;98230.34;5101721;28;19963;-76
2023/01/10 08:06:50;;;;;;;;;;;;;;;6.53;100.00;98232.91;5120176;28;20035;-76
2023/01/10 08:09:16;;;;;;;;;;;;;;;6.57;100.00;98234.84;5099212;28;20567;-76
2023/01/10 08:11:44;;;;;;;;;;;;;;;6.55;100.00;98241.44;5098079;28;19924;-76
2023/01/10 08:14:10;;;;;;;;;;;;;;;6.51;100.00;98241.06;5117954;28;19924;-76
2023/01/10 08:16:37;;;;;;;;;;;;;;;6.53;100.00;98246.16;5119866;28;19931;-77
2023/01/10 08:19:03;;;;;;;;;;;;;;;6.59;100.00;98248.72;5101377;28;19987;-77
2023/01/10 08:21:29;;;;;;;;;;;;;;;6.64;100.00;98253.31;5116356;28;19992;-77
2023/01/10 08:23:56;;;;;;;;;;;;;;;6.63;100.00;98265.78;5100683;28;19920;-77
2023/01/10 08:26:22;;;;;;;;;;;;;;;6.43;100.00;98267.94;5111857;28;19924;-77
2023/01/10 08:28:50;;;;;;;;;;;;;;;6.48;100.00;98276.84;5101580;28;19924;-77
2023/01/10 08:31:16;;;;;;;;;;;;;;;6.34;100.00;98283.38;5099584;28;19973;-77
2023/01/10 08:33:43;;;;;;;;;;;;;;;6.44;100.00;98288.13;5098692;28;20011;-77
2023/01/10 08:36:14;;;;;;;;;;;;;;;6.41;100.00;98288.56;5099667;28;19960;-77
2023/01/10 08:38:40;;;;;;;;;;;;;;;6.24;100.00;98285.78;5120115;28;19934;-77
2023/01/10 08:41:07;;;;;;;;;;;;;;;6.28;100.00;98286.91;5118870;28;19928;-76
2023/01/10 08:43:33;;;;;;;;;;;;;;;6.42;100.00;98298.97;5097775;28;19955;-77
2023/01/10 08:46:01;;;;;;;;;;;;;;;6.44;100.00;98296.06;5098177;28;19930;-77
2023/01/10 08:48:27;;;;;;;;;;;;;;;6.37;100.00;98309.47;5089449;28;19920;-77
2023/01/10 08:50:54;;;;;;;;;;;;;;;6.50;100.00;98317.19;5107411;28;19970;-77
2023/01/10 08:53:20;;;;;;;;;;;;;;;6.56;100.00;98312.81;5107383;28;20544;-77
2023/01/10 08:55:48;;;;;;;;;;;;;;;6.46;100.00;98310.75;5104630;28;19924;-77
2023/01/10 08:58:15;;;;;;;;;;;;;;;6.30;100.00;98314.03;5096265;28;19983;-76
2023/01/10 09:00:41;;;;;;;;;;;;;;;6.42;100.00;98324.69;5095255;28;19924;-75
2023/01/10 09:03:09;;;;;;;;;;;;;;;6.38;100.00;98331.47;5100256;28;20167;-74
2023/01/10 09:05:35;;;;;;;;;;;;;;;6.40;100.00;98335.53;5115545;28;20000;-74
2023/01/10 09:08:02;;;;;;;;;;;;;;;6.27;100.00;98330.41;5115824;28;19943;-77
2023/01/10 09:10:29;;;;;;;;;;;;;;;6.41;100.00;98326.53;5101670;28;19927;-77
2023/01/10 09:12:58;;;;;;;;;;;;;;;6.54;100.00;98330.84;5102866;28;19949;-76
2023/01/10 09:15:26;;;;;;;;;;;;;;;6.49;100.00;98339.47;5097727;28;19920;-76
2023/01/10 09:17:55;;;;;;;;;;;;;;;6.46;100.00;98345.25;5115953;28;20551;-77
2023/01/10 09:20:23;;;;;;;;;;;;;;;6.38;100.00;98342.88;5100360;28;19923;-77
2023/01/10 09:22:50;;;;;;;;;;;;;;;6.55;100.00;98359.00;5101044;28;19936;-77
2023/01/10 09:25:17;;;;;;;;;;;;;;;6.50;100.00;98357.00;5107849;28;19979;-76
2023/01/10 09:27:43;;;;;;;;;;;;;;;6.44;100.00;98365.06;5097418;28;20020;-76
2023/01/10 09:30:10;;;;;;;;;;;;;;;6.40;100.00;98375.34;5098086;28;19992;-76
2023/01/10 09:32:37;;;;;;;;;;;;;;;6.42;100.00;98375.91;5118937;28;19945;-76
2023/01/10 09:35:03;;;;;;;;;;;;;;;6.51;100.00;98387.81;5100648;28;19920;-76
2023/01/10 09:37:32;;;;;;;;;;;;;;;6.46;100.00;98382.38;5097436;28;20141;-78
2023/01/10 09:39:59;;;;;;;;;;;;;;;6.37;100.00;98378.44;5115419;28;19930;-78
2023/01/10 09:42:30;;;;;;;;;;;;;;;6.49;100.00;98379.28;5118497;28;19995;-77
2023/01/10 09:45:01;;;;;;;;;;;;;;;6.58;100.00;98379.78;5118842;28;19924;-77
2023/01/10 09:47:32;;;;;;;;;;;;;;;6.57;100.00;98396.72;5115619;28;19957;-77
2023/01/10 09:50:03;;;;;;;;;;;;;;;6.57;100.00;98395.91;5115295;28;19996;-77
2023/01/10 09:52:34;;;;;;;;;;;;;;;6.49;100.00;98402.34;5115079;28;19935;-77
2023/01/10 09:55:04;;;;;;;;;;;;;;;6.44;100.00;98405.66;5108881;28;19949;-77
2023/01/10 09:57:30;;;;;;;;;;;;;;;6.39;100.00;98407.38;5114929;28;19984;-77
2023/01/10 09:59:57;;;;;;;;;;;;;;;6.33;100.00;98402.97;5116977;28;20562;-77
2023/01/10 10:02:26;;;;;;;;;;;;;;;6.41;100.00;98398.16;5118540;28;19966;-77
2023/01/10 10:05:00;;;;;;;;;;;;;;;6.44;100.00;98400.34;5100583;28;19928;-77
2023/01/10 10:07:26;;;;;;;;;;;;;;;6.50;100.00;98410.06;5097133;28;19953;-77
2023/01/10 10:09:54;;;;;;;;;;;;;;;6.43;100.00;98413.84;5115214;28;19948;-77
2023/01/10 10:12:26;;;;;;;;;;;;;;;6.40;100.00;98409.00;5099751;28;19959;-77
2023/01/10 10:15:07;;;;;;;;;;;;;;;6.47;100.00;98404.41;5102911;28;20587;-76
2023/01/10 10:17:42;;;;;;;;;;;;;;;6.42;100.00;98413.03;5096624;28;19924;-77
2023/01/10 10:20:30;;;;;;;;;;;;;;;6.30;100.00;98419.31;5098033;28;19920;-77
2023/01/10 10:23:03;;;;;;;;;;;;;;;6.40;100.00;98428.38;5104747;28;19995;-76
2023/01/10 10:25:39;;;;;;;;;;;;;;;6.27;100.00;98425.88;5109363;28;19924;-77
2023/01/10 10:28:15;;;;;;;;;;;;;;;6.28;100.00;98430.16;5107769;28;19924;-76
2023/01/10 10:30:48;;;;;;;;;;;;;;;6.46;100.00;98430.16;5104559;28;20405;-77
2023/01/10 10:33:25;;;;;;;;;;;;;;;6.43;100.00;98413.84;5102271;28;19946;-77
2023/01/10 10:35:53;;;;;;;;;;;;;;;6.53;100.00;98409.63;5100871;28;19928;-77
2023/01/10 10:38:23;;;;;;;;;;;;;;;6.64;100.00;98408.06;5104260;28;19928;-77
2023/01/10 10:40:52;;;;;;;;;;;;;;;6.68;100.00;98408.41;5105235;28;19936;-78
2023/01/10 10:43:20;;;;;;;;;;;;;;;6.64;100.00;98409.91;5102167;28;19924;-78
2023/01/10 10:48:40;;;;;;;;;;;;;;;6.58;100.00;98421.41;5102057;28;19987;-78
2023/01/10 10:51:10;;;;;;;;;;;;;;;6.32;100.00;98423.38;5102012;28;19924;-77
2023/01/10 10:53:36;;;;;;;;;;;;;;;6.53;100.00;98417.59;5104333;28;19946;-78
2023/01/10 10:58:49;;;;;;;;;;;;;;;6.66;100.00;98407.81;5104416;28;19923;-77
2023/01/10 11:01:16;;;;;;;;;;;;;;;6.66;100.00;98408.63;5104007;28;19919;-77
2023/01/10 11:03:56;;;;;;;;;;;;;;;6.64;100.00;98415.22;5099871;28;20013;-77
2023/01/10 11:06:24;;;;;;;;;;;;;;;6.63;100.00;98401.13;5103106;28;19919;-78
2023/01/10 11:08:55;;;;;;;;;;;;;;;6.48;100.00;98401.53;5103465;28;19957;-77
2023/01/10 11:11:24;;;;;;;;;;;;;;;6.60;100.00;98400.75;5100671;28;20005;-77
2023/01/10 11:13:53;;;;;;;;;;;;;;;6.57;100.00;98401.22;5118311;28;19924;-77
2023/01/10 11:16:24;;;;;;;;;;;;;;;6.61;100.00;98394.44;5103536;28;19983;-77
2023/01/10 11:19:08;;;;;;;;;;;;;;;6.43;100.00;98398.75;5105110;28;19983;-77
2023/01/10 11:21:35;;;;;;;;;;;;;;;6.55;100.00;98412.06;5119590;28;19924;-77
2023/01/10 11:24:02;;;;;;;;;;;;;;;6.59;100.00;98421.19;5120425;28;19928;-76
2023/01/10 11:26:33;;;;;;;;;;;;;;;6.58;100.00;98432.03;5094543;28;19939;-76
2023/01/10 11:29:05;;;;;;;;;;;;;;;6.58;100.00;98437.34;5136087;27;19970;-77
2023/01/10 11:31:32;;;;;;;;;;;;;;;6.49;100.00;98445.63;5094274;28;19920;-76
2023/01/10 11:33:58;;;;;;;;;;;;;;;6.58;100.00;98453.25;5111312;28;20181;-77
2023/01/10 11:36:25;;;;;;;;;;;;;;;6.36;100.00;98448.44;5092331;28;19924;-77
2023/01/10 11:38:59;;;;;;;;;;;;;;;6.24;100.00;98458.16;5101029;28;19983;-75
2023/01/10 11:41:30;;;;;;;;;;;;;;;6.39;100.00;98455.94;5101040;28;19935;-76
2023/01/10 11:44:14;;;;;;;;;;;;;;;6.46;100.00;98459.34;5091230;28;20519;-76
2023/01/10 11:46:42;;;;;;;;;;;;;;;6.50;100.00;98449.88;5109476;28;19962;-77
2023/01/10 11:49:13;;;;;;;;;;;;;;;6.49;100.00;98456.22;5090902;28;19924;-77
2023/01/10 11:51:44;;;;;;;;;;;;;;;6.57;100.00;98454.28;5108835;28;19931;-77
2023/01/10 11:54:12;;;;;;;;;;;;;;;6.49;100.00;98450.09;5117187;27;19934;-76
2023/01/10 11:56:40;;;;;;;;;;;;;;;6.65;100.00;98454.00;5102348;28;19963;-77
2023/01/10 11:59:11;;;;;;;;;;;;;;;6.73;100.00;98456.31;5101792;28;19984;-76
2023/01/10 12:01:39;;;;;;;;;;;;;;;6.71;100.00;98461.06;5098817;28;19992;-76
2023/01/10 12:04:06;;;;;;;;;;;;;;;6.68;100.00;98456.19;5117564;28;19999;-76
2023/01/10 12:06:33;;;;;;;;;;;;;;;6.74;100.00;98463.25;5120375;28;19931;-76
2023/01/10 12:08:59;;;;;;;;;;;;;;;6.72;100.00;98460.81;5120258;28;19996;-76
2023/01/10 12:11:29;;;;;;;;;;;;;;;6.75;100.00;98460.38;5098256;28;19924;-76
2023/01/10 12:13:56;;;;;;;;;;;;;;;6.65;100.00;98470.72;5098762;28;19924;-77
2023/01/10 12:16:25;;;;;;;;;;;;;;;6.72;100.00;98470.63;5119905;28;20022;-75
2023/01/10 12:18:52;;;;;;;;;;;;;;;6.67;100.00;98465.19;5121285;28;20401;-76
2023/01/10 12:21:21;;;;;;;;;;;;;;;6.60;100.00;98452.00;5124530;28;19943;-77
2023/01/10 12:23:49;;;;;;;;;;;;;;;6.66;100.00;98447.63;5121274;28;19924;-76
2023/01/10 12:26:15;;;;;;;;;;;;;;;6.59;100.00;98457.53;5091949;28;19924;-76
2023/01/10 12:28:44;;;;;;;;;;;;;;;6.70;100.00;98462.91;5119740;28;19945;-77
2023/01/10 12:31:12;;;;;;;;;;;;;;;6.60;100.00;98459.13;5118352;28;19942;-77
2023/01/10 12:33:45;;;;;;;;;;;;;;;6.68;100.00;98462.31;5097996;28;20467;-76
2023/01/10 12:36:15;;;;;;;;;;;;;;;6.70;100.00;98470.84;5099945;28;19928;-77
2023/01/10 12:44:20;;;;;;;;;;;;;;;6.73;100.00;98472.25;5117396;28;19924;-76
2023/01/10 12:46:48;;;;;;;;;;;;;;;6.86;100.00;98477.38;5119281;28;19924;-76
2023/01/10 12:49:21;;;;;;;;;;;;;;;6.73;100.00;98473.06;5117250;28;19924;-76
2023/01/10 12:51:49;;;;;;;;;;;;;;;6.71;100.00;98484.94;5097716;28;19935;-76
2023/01/10 12:54:18;;;;;;;;;;;;;;;6.78;100.00;98475.84;5106600;27;19924;-75
2023/01/10 12:56:46;;;;;;;;;;;;;;;6.58;100.00;98469.19;5119537;28;19983;-76
2023/01/10 12:59:19;;;;;;;;;;;;;;;6.60;100.00;98488.31;5099116;28;19955;-76
2023/01/10 13:01:49;;;;;;;;;;;;;;;6.76;100.00;98493.03;5115778;28;19924;-76
2023/01/10 13:04:18;;;;;;;;;;;;;;;6.77;100.00;98484.03;5099458;28;19924;-76
2023/01/10 13:06:46;;;;;;;;;;;;;;;6.83;100.00;98499.88;5103500;28;19955;-76
2023/01/10 13:09:14;;;;;;;;;;;;;;;6.81;100.00;98490.50;5099617;28;20777;-76
2023/01/10 13:11:44;;;;;;;;;;;;;;;6.49;100.00;98493.38;5115549;28;19997;-76